Norway, KS (66961)

4:24 AM CDT on October 01, 2014 (GMT -0500)
2 S of Pawnee | Change Station
CLOSE
Current Station
Personal Weather Station
Location: Courtland, KS
Elevation: 1565 ft
Nearby Weather Stations

Elev 1565 ft 39.89 °N, 97.85 °W | Updated 52 seconds ago

Partly Cloudy
Partly Cloudy
64.2 °F
Feels Like 64.2 °F
N
0.0
Wind Variable Wind from ENE
Gusts 0.0 mph

Today
High -- | Low -- °F
--% Chance of Precip.
Yesterday
High -- | Low -- °F
Precip. -- in
7:27 AM 7:13 PM
Waxing Crescent, 45% visible
Pressure 29.68 in
Visibility 1.8 miles
Clouds Clear
Dew Point 63 °F
Humidity 97%
Rainfall 0.00 in
Snow Depth Not available.
UV 0 out of 12
Pollen 3.00 out of 12
Air Quality Not available.
Flu Activity Not available.
SPECI KCNK 010912Z AUTO 16005KT 1 3/4SM BR CLR 16/16 A2968

More Conditions Fewer Conditions

Pressure 29.68 in
Visibility 1.8 miles
Clouds Clear
Dew Point 63 °F
Humidity 97%
Rainfall 0.00 in
Snow Depth Not available.
UV 0 out of 12
Pollen 3.00 out of 12
Air Quality Not available.
Flu Activity Not available.
SPECI KCNK 010912Z AUTO 16005KT 1 3/4SM BR CLR 16/16 A2968

More Conditions Fewer Conditions

10-Day Weather Forecast

Almanac

Astronomy

Oct. 01, 2014 Rise Set
Actual Time 7:27 AM CDT 7:13 PM CDT
Civil Twilight 7:00 AM CDT 7:40 PM CDT
Nautical Twilight 6:29 AM CDT 8:11 PM CDT
Astronomical Twilight 5:57 AM CDT 8:43 PM CDT
Moon 2:28 PM CDT No Moon Set
Length of Visible Light 12h 39m
Length of Day
11h 46m
Tomorrow will be 2m 35s shorter.
Waxing Crescent, 45% of the Moon is Illuminated
Today
Waxing Crescent
Oct 1
First Quarter
Oct 8
Full
Oct 15
Last Quarter
Oct 23
New

Today's Extremes

State Highs State Lows

Community

WunderPhotos

Upload Photos

1,757,902 photos uploaded!

WunderBlogs® & News

Nearby

Snow Depth

Station Depth Elevation
No new snow has been reported.

Earthquake Activity

City Distance Mag. Time & Date
No recent earthquake activity has been reported nearby.
Minimum magnitude displayed is 2.5.

Coastal Water Temperatures

Place Temperature
No Stations Reporting

Nearby Weather Stations